Aviation Digital Data Service (ADDS)

Output produced by METARs form (0416 UTC 24 January 2019)
found at http://www.aviationweather.gov/metar/data/
 
METAR text: SCEL 240400Z 15005KT CAVOK 19/10 Q1010 NOSIG
Conditions at: SCEL (PUDAHUEL/ARTURO , CL) observed 0400 UTC 24 January 2019
Temperature: 19.0°C (66°F)
Dewpoint: 10.0°C (50°F) [RH = 56%]
Pressure (altimeter): 29.82 inches Hg (1010.0 mb)
Winds: from the SSE (150 degrees) at 6 MPH (5 knots; 2.6 m/s)
Visibility: 6 or more miles (10+ km)
Ceiling: ceiling and visibility are OK
Clouds: unknown
Weather: no significant weather observed at this time

METAR text: SCEL 240300Z 17009KT CAVOK 20/10 Q1010 NOSIG
Conditions at: SCEL (PUDAHUEL/ARTURO , CL) observed 0300 UTC 24 January 2019
Temperature: 20.0°C (68°F)
Dewpoint: 10.0°C (50°F) [RH = 53%]
Pressure (altimeter): 29.82 inches Hg (1010.0 mb)
Winds: from the S (170 degrees) at 10 MPH (9 knots; 4.6 m/s)
Visibility: 6 or more miles (10+ km)
Ceiling: ceiling and visibility are OK
Clouds: unknown
Weather: no significant weather observed at this time

METAR text: SCEL 240200Z 15008KT CAVOK 21/11 Q1010 NOSIG
Conditions at: SCEL (PUDAHUEL/ARTURO , CL) observed 0200 UTC 24 January 2019
Temperature: 21.0°C (70°F)
Dewpoint: 11.0°C (52°F) [RH = 53%]
Pressure (altimeter): 29.82 inches Hg (1010.0 mb)
Winds: from the SSE (150 degrees) at 9 MPH (8 knots; 4.1 m/s)
Visibility: 6 or more miles (10+ km)
Ceiling: ceiling and visibility are OK
Clouds: unknown
Weather: no significant weather observed at this time

METAR text: SCEL 240100Z 16009KT CAVOK 23/10 Q1010 NOSIG
Conditions at: SCEL (PUDAHUEL/ARTURO , CL) observed 0100 UTC 24 January 2019
Temperature: 23.0°C (73°F)
Dewpoint: 10.0°C (50°F) [RH = 44%]
Pressure (altimeter): 29.82 inches Hg (1010.0 mb)
Winds: from the SSE (160 degrees) at 10 MPH (9 knots; 4.6 m/s)
Visibility: 6 or more miles (10+ km)
Ceiling: ceiling and visibility are OK
Clouds: unknown
Weather: no significant weather observed at this time

METAR text: SCEL 240000Z 20010KT CAVOK 25/10 Q1010 NOSIG
Conditions at: SCEL (PUDAHUEL/ARTURO , CL) observed 0000 UTC 24 January 2019
Temperature: 25.0°C (77°F)
Dewpoint: 10.0°C (50°F) [RH = 39%]
Pressure (altimeter): 29.82 inches Hg (1010.0 mb)
Winds: from the SSW (200 degrees) at 12 MPH (10 knots; 5.1 m/s)
Visibility: 6 or more miles (10+ km)
Ceiling: ceiling and visibility are OK
Clouds: unknown
Weather: no significant weather observed at this time

METAR text: SCEL 232300Z 21014KT CAVOK 27/10 Q1010 NOSIG
Conditions at: SCEL (PUDAHUEL/ARTURO , CL) observed 2300 UTC 23 January 2019
Temperature: 27.0°C (81°F)
Dewpoint: 10.0°C (50°F) [RH = 34%]
Pressure (altimeter): 29.82 inches Hg (1010.0 mb)
Winds: from the SSW (210 degrees) at 16 MPH (14 knots; 7.2 m/s)
Visibility: 6 or more miles (10+ km)
Ceiling: ceiling and visibility are OK
Clouds: unknown
Weather: no significant weather observed at this time

METAR text: SCEL 232200Z 21015KT CAVOK 29/11 Q1010 NOSIG
Conditions at: SCEL (PUDAHUEL/ARTURO , CL) observed 2200 UTC 23 January 2019
Temperature: 29.0°C (84°F)
Dewpoint: 11.0°C (52°F) [RH = 33%]
Pressure (altimeter): 29.82 inches Hg (1010.0 mb)
Winds: from the SSW (210 degrees) at 17 MPH (15 knots; 7.7 m/s)
Visibility: 6 or more miles (10+ km)
Ceiling: ceiling and visibility are OK
Clouds: unknown
Weather: no significant weather observed at this time

METAR text: SCEL 232100Z 22015KT CAVOK 31/10 Q1010 NOSIG
Conditions at: SCEL (PUDAHUEL/ARTURO , CL) observed 2100 UTC 23 January 2019
Temperature: 31.0°C (88°F)
Dewpoint: 10.0°C (50°F) [RH = 27%]
Pressure (altimeter): 29.82 inches Hg (1010.0 mb)
Winds: from the SW (220 degrees) at 17 MPH (15 knots; 7.7 m/s)
Visibility: 6 or more miles (10+ km)
Ceiling: ceiling and visibility are OK
Clouds: unknown
Weather: no significant weather observed at this time

METAR text: SCEL 232000Z 21014KT 180V240 CAVOK 32/08 Q1010 NOSIG
Conditions at: SCEL (PUDAHUEL/ARTURO , CL) observed 2000 UTC 23 January 2019
Temperature: 32.0°C (90°F)
Dewpoint: 8.0°C (46°F) [RH = 23%]
Pressure (altimeter): 29.82 inches Hg (1010.0 mb)
Winds: from the SSW (210 degrees) at 16 MPH (14 knots; 7.2 m/s)
Visibility: 6 or more miles (10+ km)
Ceiling: ceiling and visibility are OK
Clouds: unknown
Weather: no significant weather observed at this time

METAR text: SCEL 231900Z 21014KT 190V270 CAVOK 32/06 Q1011 NOSIG
Conditions at: SCEL (PUDAHUEL/ARTURO , CL) observed 1900 UTC 23 January 2019
Temperature: 32.0°C (90°F)
Dewpoint: 6.0°C (43°F) [RH = 20%]
Pressure (altimeter): 29.85 inches Hg (1011.0 mb)
Winds: from the SSW (210 degrees) at 16 MPH (14 knots; 7.2 m/s)
Visibility: 6 or more miles (10+ km)
Ceiling: ceiling and visibility are OK
Clouds: unknown
Weather: no significant weather observed at this time

METAR text: SCEL 231800Z 21016KT 180V240 CAVOK 30/08 Q1012 NOSIG
Conditions at: SCEL (PUDAHUEL/ARTURO , CL) observed 1800 UTC 23 January 2019
Temperature: 30.0°C (86°F)
Dewpoint: 8.0°C (46°F) [RH = 25%]
Pressure (altimeter): 29.88 inches Hg (1012.0 mb)
Winds: from the SSW (210 degrees) at 18 MPH (16 knots; 8.2 m/s)
Visibility: 6 or more miles (10+ km)
Ceiling: ceiling and visibility are OK
Clouds: unknown
Weather: no significant weather observed at this time

METAR text: SCEL 231700Z 18013KT 140V230 CAVOK 31/08 Q1013 NOSIG
Conditions at: SCEL (PUDAHUEL/ARTURO , CL) observed 1700 UTC 23 January 2019
Temperature: 31.0°C (88°F)
Dewpoint: 8.0°C (46°F) [RH = 24%]
Pressure (altimeter): 29.91 inches Hg (1013.0 mb)
Winds: from the S (180 degrees) at 15 MPH (13 knots; 6.7 m/s)
Visibility: 6 or more miles (10+ km)
Ceiling: ceiling and visibility are OK
Clouds: unknown
Weather: no significant weather observed at this time

METAR text: SCEL 231600Z 15010KT 120V180 CAVOK 29/08 Q1013 NOSIG
Conditions at: SCEL (PUDAHUEL/ARTURO , CL) observed 1600 UTC 23 January 2019
Temperature: 29.0°C (84°F)
Dewpoint: 8.0°C (46°F) [RH = 27%]
Pressure (altimeter): 29.91 inches Hg (1013.0 mb)
Winds: from the SSE (150 degrees) at 12 MPH (10 knots; 5.1 m/s)
Visibility: 6 or more miles (10+ km)
Ceiling: ceiling and visibility are OK
Clouds: unknown
Weather: no significant weather observed at this time

METAR text: SCEL 231500Z 17009KT 120V210 CAVOK 28/08 Q1013 NOSIG
Conditions at: SCEL (PUDAHUEL/ARTURO , CL) observed 1500 UTC 23 January 2019
Temperature: 28.0°C (82°F)
Dewpoint: 8.0°C (46°F) [RH = 28%]
Pressure (altimeter): 29.91 inches Hg (1013.0 mb)
Winds: from the S (170 degrees) at 10 MPH (9 knots; 4.6 m/s)
Visibility: 6 or more miles (10+ km)
Ceiling: ceiling and visibility are OK
Clouds: unknown
Weather: no significant weather observed at this time

METAR text: SCEL 231400Z 19004KT 150V260 CAVOK 26/08 Q1013 NOSIG
Conditions at: SCEL (PUDAHUEL/ARTURO , CL) observed 1400 UTC 23 January 2019
Temperature: 26.0°C (79°F)
Dewpoint: 8.0°C (46°F) [RH = 32%]
Pressure (altimeter): 29.91 inches Hg (1013.0 mb)
Winds: from the S (190 degrees) at 5 MPH (4 knots; 2.1 m/s)
Visibility: 6 or more miles (10+ km)
Ceiling: ceiling and visibility are OK
Clouds: unknown
Weather: no significant weather observed at this time

METAR text: SCEL 231300Z 20003KT 160V240 CAVOK 23/05 Q1013 NOSIG
Conditions at: SCEL (PUDAHUEL/ARTURO , CL) observed 1300 UTC 23 January 2019
Temperature: 23.0°C (73°F)
Dewpoint: 5.0°C (41°F) [RH = 31%]
Pressure (altimeter): 29.91 inches Hg (1013.0 mb)
Winds: from the SSW (200 degrees) at 3 MPH (3 knots; 1.5 m/s)
Visibility: 6 or more miles (10+ km)
Ceiling: ceiling and visibility are OK
Clouds: unknown
Weather: no significant weather observed at this time

METAR text: SCEL 231200Z 00000KT 8000 NSC 19/08 Q1013 NOSIG
Conditions at: SCEL (PUDAHUEL/ARTURO , CL) observed 1200 UTC 23 January 2019
Temperature: 19.0°C (66°F)
Dewpoint: 8.0°C (46°F) [RH = 49%]
Pressure (altimeter): 29.91 inches Hg (1013.0 mb)
Winds: calm
Visibility: 5 miles ( 8 km)
Ceiling: at least 12,000 feet AGL
Clouds: sky clear below 12,000 feet AGL
Weather: no significant weather observed at this time

METAR text: SCEL 231100Z 00000KT 8000 NSC 16/08 Q1012 NOSIG
Conditions at: SCEL (PUDAHUEL/ARTURO , CL) observed 1100 UTC 23 January 2019
Temperature: 16.0°C (61°F)
Dewpoint: 8.0°C (46°F) [RH = 59%]
Pressure (altimeter): 29.88 inches Hg (1012.0 mb)
Winds: calm
Visibility: 5 miles ( 8 km)
Ceiling: at least 12,000 feet AGL
Clouds: sky clear below 12,000 feet AGL
Weather: no significant weather observed at this time

METAR text: SCEL 231000Z 12003KT 050V190 8000 NSC 16/08 Q1012 NOSIG
Conditions at: SCEL (PUDAHUEL/ARTURO , CL) observed 1000 UTC 23 January 2019
Temperature: 16.0°C (61°F)
Dewpoint: 8.0°C (46°F) [RH = 59%]
Pressure (altimeter): 29.88 inches Hg (1012.0 mb)
Winds: from the ESE (120 degrees) at 3 MPH (3 knots; 1.5 m/s)
Visibility: 5 miles ( 8 km)
Ceiling: at least 12,000 feet AGL
Clouds: sky clear below 12,000 feet AGL
Weather: no significant weather observed at this time

METAR text: SCEL 230900Z 00000KT CAVOK 15/07 Q1011 NOSIG
Conditions at: SCEL (PUDAHUEL/ARTURO , CL) observed 0900 UTC 23 January 2019
Temperature: 15.0°C (59°F)
Dewpoint: 7.0°C (45°F) [RH = 59%]
Pressure (altimeter): 29.85 inches Hg (1011.0 mb)
Winds: calm
Visibility: 6 or more miles (10+ km)
Ceiling: ceiling and visibility are OK
Clouds: unknown
Weather: no significant weather observed at this time

METAR text: SCEL 230800Z 33003KT 300V360 CAVOK 16/08 Q1011 NOSIG
Conditions at: SCEL (PUDAHUEL/ARTURO , CL) observed 0800 UTC 23 January 2019
Temperature: 16.0°C (61°F)
Dewpoint: 8.0°C (46°F) [RH = 59%]
Pressure (altimeter): 29.85 inches Hg (1011.0 mb)
Winds: from the NNW (330 degrees) at 3 MPH (3 knots; 1.5 m/s)
Visibility: 6 or more miles (10+ km)
Ceiling: ceiling and visibility are OK
Clouds: unknown
Weather: no significant weather observed at this time

METAR text: SCEL 230700Z 00000KT CAVOK 17/08 Q1011 NOSIG
Conditions at: SCEL (PUDAHUEL/ARTURO , CL) observed 0700 UTC 23 January 2019
Temperature: 17.0°C (63°F)
Dewpoint: 8.0°C (46°F) [RH = 55%]
Pressure (altimeter): 29.85 inches Hg (1011.0 mb)
Winds: calm
Visibility: 6 or more miles (10+ km)
Ceiling: ceiling and visibility are OK
Clouds: unknown
Weather: no significant weather observed at this time

METAR text: SCEL 230600Z 00000KT CAVOK 18/08 Q1011 NOSIG
Conditions at: SCEL (PUDAHUEL/ARTURO , CL) observed 0600 UTC 23 January 2019
Temperature: 18.0°C (64°F)
Dewpoint: 8.0°C (46°F) [RH = 52%]
Pressure (altimeter): 29.85 inches Hg (1011.0 mb)
Winds: calm
Visibility: 6 or more miles (10+ km)
Ceiling: ceiling and visibility are OK
Clouds: unknown
Weather: no significant weather observed at this time

METAR text: SCEL 230500Z VRB02KT CAVOK 19/08 Q1012 NOSIG
Conditions at: SCEL (PUDAHUEL/ARTURO , CL) observed 0500 UTC 23 January 2019
Temperature: 19.0°C (66°F)
Dewpoint: 8.0°C (46°F) [RH = 49%]
Pressure (altimeter): 29.88 inches Hg (1012.0 mb)
Winds: variable direction winds at 2 MPH (2 knots; 1.0 m/s)
Visibility: 6 or more miles (10+ km)
Ceiling: ceiling and visibility are OK
Clouds: unknown
Weather: no significant weather observed at this time

METAR text: SCEL 230400Z VRB02KT CAVOK 20/08 Q1012 NOSIG
Conditions at: SCEL (PUDAHUEL/ARTURO , CL) observed 0400 UTC 23 January 2019
Temperature: 20.0°C (68°F)
Dewpoint: 8.0°C (46°F) [RH = 46%]
Pressure (altimeter): 29.88 inches Hg (1012.0 mb)
Winds: variable direction winds at 2 MPH (2 knots; 1.0 m/s)
Visibility: 6 or more miles (10+ km)
Ceiling: ceiling and visibility are OK
Clouds: unknown
Weather: no significant weather observed at this time

METAR text: SCEL 230300Z 17007KT CAVOK 21/08 Q1012 NOSIG
Conditions at: SCEL (PUDAHUEL/ARTURO , CL) observed 0300 UTC 23 January 2019
Temperature: 21.0°C (70°F)
Dewpoint: 8.0°C (46°F) [RH = 43%]
Pressure (altimeter): 29.88 inches Hg (1012.0 mb)
Winds: from the S (170 degrees) at 8 MPH (7 knots; 3.6 m/s)
Visibility: 6 or more miles (10+ km)
Ceiling: ceiling and visibility are OK
Clouds: unknown
Weather: no significant weather observed at this time

METAR text: SCEL 230200Z 14007KT CAVOK 22/08 Q1013 NOSIG
Conditions at: SCEL (PUDAHUEL/ARTURO , CL) observed 0200 UTC 23 January 2019
Temperature: 22.0°C (72°F)
Dewpoint: 8.0°C (46°F) [RH = 41%]
Pressure (altimeter): 29.91 inches Hg (1013.0 mb)
Winds: from the SE (140 degrees) at 8 MPH (7 knots; 3.6 m/s)
Visibility: 6 or more miles (10+ km)
Ceiling: ceiling and visibility are OK
Clouds: unknown
Weather: no significant weather observed at this time

METAR text: SCEL 230100Z 15006KT CAVOK 23/09 Q1012 NOSIG
Conditions at: SCEL (PUDAHUEL/ARTURO , CL) observed 0100 UTC 23 January 2019
Temperature: 23.0°C (73°F)
Dewpoint: 9.0°C (48°F) [RH = 41%]
Pressure (altimeter): 29.88 inches Hg (1012.0 mb)
Winds: from the SSE (150 degrees) at 7 MPH (6 knots; 3.1 m/s)
Visibility: 6 or more miles (10+ km)
Ceiling: ceiling and visibility are OK
Clouds: unknown
Weather: no significant weather observed at this time

METAR text: SCEL 230000Z 19011KT CAVOK 26/08 Q1012 NOSIG
Conditions at: SCEL (PUDAHUEL/ARTURO , CL) observed 0000 UTC 23 January 2019
Temperature: 26.0°C (79°F)
Dewpoint: 8.0°C (46°F) [RH = 32%]
Pressure (altimeter): 29.88 inches Hg (1012.0 mb)
Winds: from the S (190 degrees) at 13 MPH (11 knots; 5.7 m/s)
Visibility: 6 or more miles (10+ km)
Ceiling: ceiling and visibility are OK
Clouds: unknown
Weather: no significant weather observed at this time

METAR text: SCEL 222300Z 21014KT CAVOK 27/10 Q1012 NOSIG
Conditions at: SCEL (PUDAHUEL/ARTURO , CL) observed 2300 UTC 22 January 2019
Temperature: 27.0°C (81°F)
Dewpoint: 10.0°C (50°F) [RH = 34%]
Pressure (altimeter): 29.88 inches Hg (1012.0 mb)
Winds: from the SSW (210 degrees) at 16 MPH (14 knots; 7.2 m/s)
Visibility: 6 or more miles (10+ km)
Ceiling: ceiling and visibility are OK
Clouds: unknown
Weather: no significant weather observed at this time

METAR text: SCEL 222200Z 21016KT CAVOK 29/11 Q1011 NOSIG
Conditions at: SCEL (PUDAHUEL/ARTURO , CL) observed 2200 UTC 22 January 2019
Temperature: 29.0°C (84°F)
Dewpoint: 11.0°C (52°F) [RH = 33%]
Pressure (altimeter): 29.85 inches Hg (1011.0 mb)
Winds: from the SSW (210 degrees) at 18 MPH (16 knots; 8.2 m/s)
Visibility: 6 or more miles (10+ km)
Ceiling: ceiling and visibility are OK
Clouds: unknown
Weather: no significant weather observed at this time

METAR text: SCEL 222100Z 21017KT CAVOK 30/10 Q1011 NOSIG
Conditions at: SCEL (PUDAHUEL/ARTURO , CL) observed 2100 UTC 22 January 2019
Temperature: 30.0°C (86°F)
Dewpoint: 10.0°C (50°F) [RH = 29%]
Pressure (altimeter): 29.85 inches Hg (1011.0 mb)
Winds: from the SSW (210 degrees) at 20 MPH (17 knots; 8.7 m/s)
Visibility: 6 or more miles (10+ km)
Ceiling: ceiling and visibility are OK
Clouds: unknown
Weather: no significant weather observed at this time

METAR text: SCEL 222000Z 21014KT CAVOK 32/10 Q1011 NOSIG
Conditions at: SCEL (PUDAHUEL/ARTURO , CL) observed 2000 UTC 22 January 2019
Temperature: 32.0°C (90°F)
Dewpoint: 10.0°C (50°F) [RH = 26%]
Pressure (altimeter): 29.85 inches Hg (1011.0 mb)
Winds: from the SSW (210 degrees) at 16 MPH (14 knots; 7.2 m/s)
Visibility: 6 or more miles (10+ km)
Ceiling: ceiling and visibility are OK
Clouds: unknown
Weather: no significant weather observed at this time

METAR text: SCEL 221900Z 18013G25KT 130V220 CAVOK 32/09 Q1012 NOSIG
Conditions at: SCEL (PUDAHUEL/ARTURO , CL) observed 1900 UTC 22 January 2019
Temperature: 32.0°C (90°F)
Dewpoint: 9.0°C (48°F) [RH = 24%]
Pressure (altimeter): 29.88 inches Hg (1012.0 mb)
Winds: from the S (180 degrees) at 15 MPH (13 knots; 6.7 m/s)
gusting to 29 MPH (25 knots; 12.9 m/s)
Visibility: 6 or more miles (10+ km)
Ceiling: ceiling and visibility are OK
Clouds: unknown
Weather: no significant weather observed at this time

METAR text: SCEL 221800Z 17013KT 140V200 CAVOK 31/09 Q1012 NOSIG
Conditions at: SCEL (PUDAHUEL/ARTURO , CL) observed 1800 UTC 22 January 2019
Temperature: 31.0°C (88°F)
Dewpoint: 9.0°C (48°F) [RH = 26%]
Pressure (altimeter): 29.88 inches Hg (1012.0 mb)
Winds: from the S (170 degrees) at 15 MPH (13 knots; 6.7 m/s)
Visibility: 6 or more miles (10+ km)
Ceiling: ceiling and visibility are OK
Clouds: unknown
Weather: no significant weather observed at this time

METAR text: SCEL 221700Z 17010KT 130V210 CAVOK 30/10 Q1012 NOSIG
Conditions at: SCEL (PUDAHUEL/ARTURO , CL) observed 1700 UTC 22 January 2019
Temperature: 30.0°C (86°F)
Dewpoint: 10.0°C (50°F) [RH = 29%]
Pressure (altimeter): 29.88 inches Hg (1012.0 mb)
Winds: from the S (170 degrees) at 12 MPH (10 knots; 5.1 m/s)
Visibility: 6 or more miles (10+ km)
Ceiling: ceiling and visibility are OK
Clouds: unknown
Weather: no significant weather observed at this time

Forecast for: SCEL (PUDAHUEL/ARTURO , CL)
Text: TAF SCEL 232202Z 2400/2424 20012KT CAVOK TX31/2419Z TN13/2411Z
Forecast period: 0000 to 0200 UTC 24 January 2019
Forecast type: FROM: standard forecast or significant change
Winds: from the SSW (200 degrees) at 14 MPH (12 knots; 6.2 m/s)
Visibility: 6 or more miles 10+ km)
Ceiling: unknown
Clouds: missing
Weather: no significant weather forecast for this period
Text: BECMG 2402/2404 17004KT
Forecast period: 0200 to 1500 UTC 24 January 2019
Forecast type: BECOMING: Conditions expected to become as follows by 0400 UTC 24 January 2019
Winds: from the S (170 degrees) at 5 MPH (4 knots; 2.1 m/s)
Visibility: 6 or more miles 10+ km)
Ceiling: unknown
Clouds: missing
Weather: no significant weather forecast for this period
Text: TEMPO 2405/2414 VRB02KT 7000 NSC
Forecast period: 0500 to 1400 UTC 24 January 2019
Forecast type: TEMPORARY: The following changes expected for less than half the time period
Winds: variable direction winds at 2 MPH (2 knots; 1.0 m/s)
Visibility: 4 miles (7 km)
Ceiling: unknown
Clouds: missing
Weather: no significant weather forecast for this period
Text: BECMG 2415/2417 20014KT
Forecast period: 1500 UTC 24 January 2019 to 0000 UTC 25 January 2019
Forecast type: BECOMING: Conditions expected to become as follows by 1700 UTC 24 January 2019
Winds: from the SSW (200 degrees) at 16 MPH (14 knots; 7.2 m/s)
Visibility: 6 or more miles 10+ km)
Ceiling: unknown
Clouds: missing
Weather: no significant weather forecast for this period